sensor_id;sensor_type;location;lat;lon;timestamp;P1;P2;P0
33948;PMS7003;20229;49.856;19.030;2023-11-18T00:00:55;17;15;8
33948;PMS7003;20229;49.856;19.030;2023-11-18T00:06:14;15;13;8
33948;PMS7003;20229;49.856;19.030;2023-11-18T00:11:28;12;10;7
33948;PMS7003;20229;49.856;19.030;2023-11-18T00:16:42;13;10;6
33948;PMS7003;20229;49.856;19.030;2023-11-18T00:21:56;13;13;8
33948;PMS7003;20229;49.856;19.030;2023-11-18T00:27:10;13;12;8
33948;PMS7003;20229;49.856;19.030;2023-11-18T00:32:26;13;12;7
33948;PMS7003;20229;49.856;19.030;2023-11-18T00:37:40;18;15;9
33948;PMS7003;20229;49.856;19.030;2023-11-18T00:42:56;16;13;6
33948;PMS7003;20229;49.856;19.030;2023-11-18T00:48:10;11;10;7
33948;PMS7003;20229;49.856;19.030;2023-11-18T00:53:24;15;12;7
33948;PMS7003;20229;49.856;19.030;2023-11-18T00:58:38;14;11;8
33948;PMS7003;20229;49.856;19.030;2023-11-18T01:03:53;14;11;6
33948;PMS7003;20229;49.856;19.030;2023-11-18T01:09:07;14;12;7
33948;PMS7003;20229;49.856;19.030;2023-11-18T01:14:22;12;10;6
33948;PMS7003;20229;49.856;19.030;2023-11-18T01:19:36;17;16;9
33948;PMS7003;20229;49.856;19.030;2023-11-18T01:24:51;16;14;8
33948;PMS7003;20229;49.856;19.030;2023-11-18T01:30:07;18;14;7
33948;PMS7003;20229;49.856;19.030;2023-11-18T01:35:23;15;13;8
33948;PMS7003;20229;49.856;19.030;2023-11-18T01:40:40;18;13;8
33948;PMS7003;20229;49.856;19.030;2023-11-18T01:45:55;14;12;7
33948;PMS7003;20229;49.856;19.030;2023-11-18T01:51:11;11;10;6
33948;PMS7003;20229;49.856;19.030;2023-11-18T01:56:26;10;10;5
33948;PMS7003;20229;49.856;19.030;2023-11-18T02:01:41;16;13;8
33948;PMS7003;20229;49.856;19.030;2023-11-18T02:06:56;14;12;7
33948;PMS7003;20229;49.856;19.030;2023-11-18T02:18:06;11;9;6
33948;PMS7003;20229;49.856;19.030;2023-11-18T02:23:27;13;11;7
33948;PMS7003;20229;49.856;19.030;2023-11-18T02:28:44;13;11;6
33948;PMS7003;20229;49.856;19.030;2023-11-18T02:34:02;13;11;6
33948;PMS7003;20229;49.856;19.030;2023-11-18T02:39:33;9;8;5
33948;PMS7003;20229;49.856;19.030;2023-11-18T02:44:51;10;8;4
33948;PMS7003;20229;49.856;19.030;2023-11-18T02:50:13;8;7;4
33948;PMS7003;20229;49.856;19.030;2023-11-18T02:55:28;10;8;5
33948;PMS7003;20229;49.856;19.030;2023-11-18T03:00:42;12;8;6
33948;PMS7003;20229;49.856;19.030;2023-11-18T03:05:58;9;8;4
33948;PMS7003;20229;49.856;19.030;2023-11-18T03:11:13;8;7;4
33948;PMS7003;20229;49.856;19.030;2023-11-18T03:16:27;9;7;5
33948;PMS7003;20229;49.856;19.030;2023-11-18T03:21:42;10;7;5
33948;PMS7003;20229;49.856;19.030;2023-11-18T03:26:56;9;6;4
33948;PMS7003;20229;49.856;19.030;2023-11-18T03:32:10;7;6;3
33948;PMS7003;20229;49.856;19.030;2023-11-18T03:37:25;8;8;4
33948;PMS7003;20229;49.856;19.030;2023-11-18T03:42:40;10;8;5
33948;PMS7003;20229;49.856;19.030;2023-11-18T03:47:55;7;7;5
33948;PMS7003;20229;49.856;19.030;2023-11-18T03:53:10;9;7;5
33948;PMS7003;20229;49.856;19.030;2023-11-18T03:58:26;11;9;6
33948;PMS7003;20229;49.856;19.030;2023-11-18T04:03:40;8;7;5
33948;PMS7003;20229;49.856;19.030;2023-11-18T04:08:55;10;8;6
33948;PMS7003;20229;49.856;19.030;2023-11-18T04:14:09;9;7;4
33948;PMS7003;20229;49.856;19.030;2023-11-18T04:19:24;10;9;6
33948;PMS7003;20229;49.856;19.030;2023-11-18T04:24:38;10;8;5
33948;PMS7003;20229;49.856;19.030;2023-11-18T04:29:52;5;4;3
33948;PMS7003;20229;49.856;19.030;2023-11-18T04:35:07;7;5;3
33948;PMS7003;20229;49.856;19.030;2023-11-18T04:40:25;5;5;3
33948;PMS7003;20229;49.856;19.030;2023-11-18T04:45:40;6;6;4
33948;PMS7003;20229;49.856;19.030;2023-11-18T04:50:54;4;4;2
33948;PMS7003;20229;49.856;19.030;2023-11-18T04:56:09;6;6;4
33948;PMS7003;20229;49.856;19.030;2023-11-18T05:01:23;7;7;4
33948;PMS7003;20229;49.856;19.030;2023-11-18T05:06:41;6;5;3
33948;PMS7003;20229;49.856;19.030;2023-11-18T05:11:55;9;8;5
33948;PMS7003;20229;49.856;19.030;2023-11-18T05:17:12;5;5;3
33948;PMS7003;20229;49.856;19.030;2023-11-18T05:22:25;9;8;5
33948;PMS7003;20229;49.856;19.030;2023-11-18T05:27:40;8;6;4
33948;PMS7003;20229;49.856;19.030;2023-11-18T05:32:54;11;10;6
33948;PMS7003;20229;49.856;19.030;2023-11-18T05:38:08;13;10;6
33948;PMS7003;20229;49.856;19.030;2023-11-18T05:43:26;10;9;6
33948;PMS7003;20229;49.856;19.030;2023-11-18T05:48:53;8;7;4
33948;PMS7003;20229;49.856;19.030;2023-11-18T05:54:09;12;10;6
33948;PMS7003;20229;49.856;19.030;2023-11-18T05:59:24;10;9;6
33948;PMS7003;20229;49.856;19.030;2023-11-18T06:04:39;13;12;6
33948;PMS7003;20229;49.856;19.030;2023-11-18T06:09:55;11;10;7
33948;PMS7003;20229;49.856;19.030;2023-11-18T06:15:11;10;9;6
33948;PMS7003;20229;49.856;19.030;2023-11-18T06:20:28;13;9;5
33948;PMS7003;20229;49.856;19.030;2023-11-18T06:25:41;11;8;5
33948;PMS7003;20229;49.856;19.030;2023-11-18T06:30:55;10;7;4
33948;PMS7003;20229;49.856;19.030;2023-11-18T06:36:10;9;8;6
33948;PMS7003;20229;49.856;19.030;2023-11-18T06:41:34;6;6;3
33948;PMS7003;20229;49.856;19.030;2023-11-18T06:46:56;3;3;1
33948;PMS7003;20229;49.856;19.030;2023-11-18T06:52:10;4;3;2
33948;PMS7003;20229;49.856;19.030;2023-11-18T06:57:27;4;3;1
33948;PMS7003;20229;49.856;19.030;2023-11-18T07:02:41;4;2;1
33948;PMS7003;20229;49.856;19.030;2023-11-18T07:07:56;5;3;2
33948;PMS7003;20229;49.856;19.030;2023-11-18T07:13:10;5;3;1
33948;PMS7003;20229;49.856;19.030;2023-11-18T07:18:25;4;4;2
33948;PMS7003;20229;49.856;19.030;2023-11-18T07:23:39;3;2;1
33948;PMS7003;20229;49.856;19.030;2023-11-18T07:28:53;7;4;2
33948;PMS7003;20229;49.856;19.030;2023-11-18T07:34:09;4;4;2
33948;PMS7003;20229;49.856;19.030;2023-11-18T07:39:23;4;3;2
33948;PMS7003;20229;49.856;19.030;2023-11-18T07:44:51;6;6;3
33948;PMS7003;20229;49.856;19.030;2023-11-18T07:50:05;4;4;2
33948;PMS7003;20229;49.856;19.030;2023-11-18T07:55:25;5;4;3
33948;PMS7003;20229;49.856;19.030;2023-11-18T08:00:39;6;5;3
33948;PMS7003;20229;49.856;19.030;2023-11-18T08:05:55;9;7;4
33948;PMS7003;20229;49.856;19.030;2023-11-18T08:11:10;5;5;4
33948;PMS7003;20229;49.856;19.030;2023-11-18T08:16:25;7;6;5
33948;PMS7003;20229;49.856;19.030;2023-11-18T08:21:40;11;11;6
33948;PMS7003;20229;49.856;19.030;2023-11-18T08:26:55;9;9;5
33948;PMS7003;20229;49.856;19.030;2023-11-18T08:32:09;10;8;5
33948;PMS7003;20229;49.856;19.030;2023-11-18T08:37:26;12;11;7
33948;PMS7003;20229;49.856;19.030;2023-11-18T08:42:42;15;12;7
33948;PMS7003;20229;49.856;19.030;2023-11-18T08:48:03;13;11;7
33948;PMS7003;20229;49.856;19.030;2023-11-18T08:53:21;13;11;6
33948;PMS7003;20229;49.856;19.030;2023-11-18T08:58:40;15;12;6
33948;PMS7003;20229;49.856;19.030;2023-11-18T09:04:03;13;11;6
33948;PMS7003;20229;49.856;19.030;2023-11-18T09:09:22;13;12;6
33948;PMS7003;20229;49.856;19.030;2023-11-18T09:14:40;14;12;7
33948;PMS7003;20229;49.856;19.030;2023-11-18T09:19:56;10;10;6
33948;PMS7003;20229;49.856;19.030;2023-11-18T09:25:10;14;11;7
33948;PMS7003;20229;49.856;19.030;2023-11-18T09:30:25;11;10;6
33948;PMS7003;20229;49.856;19.030;2023-11-18T09:35:39;14;12;6
33948;PMS7003;20229;49.856;19.030;2023-11-18T09:40:54;8;8;4
33948;PMS7003;20229;49.856;19.030;2023-11-18T09:51:33;8;7;5
33948;PMS7003;20229;49.856;19.030;2023-11-18T09:56:56;11;10;5
33948;PMS7003;20229;49.856;19.030;2023-11-18T10:02:25;10;8;6
33948;PMS7003;20229;49.856;19.030;2023-11-18T10:08:17;10;9;6
33948;PMS7003;20229;49.856;19.030;2023-11-18T10:13:43;12;11;7
33948;PMS7003;20229;49.856;19.030;2023-11-18T10:18:57;11;10;7
33948;PMS7003;20229;49.856;19.030;2023-11-18T10:24:19;11;11;6
33948;PMS7003;20229;49.856;19.030;2023-11-18T10:29:33;11;10;6
33948;PMS7003;20229;49.856;19.030;2023-11-18T10:34:48;14;10;6
33948;PMS7003;20229;49.856;19.030;2023-11-18T10:40:03;10;10;6
33948;PMS7003;20229;49.856;19.030;2023-11-18T10:50:40;13;10;6
33948;PMS7003;20229;49.856;19.030;2023-11-18T10:55:55;13;10;7
33948;PMS7003;20229;49.856;19.030;2023-11-18T11:01:10;11;10;6
33948;PMS7003;20229;49.856;19.030;2023-11-18T11:06:26;10;9;7
33948;PMS7003;20229;49.856;19.030;2023-11-18T11:11:46;13;12;7
33948;PMS7003;20229;49.856;19.030;2023-11-18T11:17:05;12;12;8
33948;PMS7003;20229;49.856;19.030;2023-11-18T11:23:14;12;12;7
33948;PMS7003;20229;49.856;19.030;2023-11-18T11:28:09;14;11;8
33948;PMS7003;20229;49.856;19.030;2023-11-18T11:33:57;14;11;8
33948;PMS7003;20229;49.856;19.030;2023-11-18T11:39:20;13;12;8
33948;PMS7003;20229;49.856;19.030;2023-11-18T11:44:43;16;14;9
33948;PMS7003;20229;49.856;19.030;2023-11-18T11:50:01;16;14;9
33948;PMS7003;20229;49.856;19.030;2023-11-18T12:00:54;8;7;6
33948;PMS7003;20229;49.856;19.030;2023-11-18T12:06:09;12;11;7
33948;PMS7003;20229;49.856;19.030;2023-11-18T12:11:30;11;10;7
33948;PMS7003;20229;49.856;19.030;2023-11-18T12:23:04;7;6;4
33948;PMS7003;20229;49.856;19.030;2023-11-18T12:28:17;9;8;5
33948;PMS7003;20229;49.856;19.030;2023-11-18T12:34:21;13;10;7
33948;PMS7003;20229;49.856;19.030;2023-11-18T12:44:30;17;15;10
33948;PMS7003;20229;49.856;19.030;2023-11-18T12:49:54;23;17;11
33948;PMS7003;20229;49.856;19.030;2023-11-18T12:55:08;26;22;13
33948;PMS7003;20229;49.856;19.030;2023-11-18T13:00:23;28;23;14
33948;PMS7003;20229;49.856;19.030;2023-11-18T13:05:41;30;24;15
33948;PMS7003;20229;49.856;19.030;2023-11-18T13:10:56;18;14;10
33948;PMS7003;20229;49.856;19.030;2023-11-18T13:16:17;22;19;12
33948;PMS7003;20229;49.856;19.030;2023-11-18T13:21:33;18;17;11
33948;PMS7003;20229;49.856;19.030;2023-11-18T13:26:51;16;15;11
33948;PMS7003;20229;49.856;19.030;2023-11-18T13:32:05;20;17;12
33948;PMS7003;20229;49.856;19.030;2023-11-18T13:37:20;20;18;11
33948;PMS7003;20229;49.856;19.030;2023-11-18T13:42:35;21;19;12
33948;PMS7003;20229;49.856;19.030;2023-11-18T13:47:55;31;25;17
33948;PMS7003;20229;49.856;19.030;2023-11-18T13:53:13;26;23;14
33948;PMS7003;20229;49.856;19.030;2023-11-18T13:58:28;19;16;11
33948;PMS7003;20229;49.856;19.030;2023-11-18T14:03:42;14;12;8
33948;PMS7003;20229;49.856;19.030;2023-11-18T14:08:58;19;16;10
33948;PMS7003;20229;49.856;19.030;2023-11-18T14:14:12;24;20;12
33948;PMS7003;20229;49.856;19.030;2023-11-18T14:19:26;27;25;18
33948;PMS7003;20229;49.856;19.030;2023-11-18T14:24:41;24;21;13
33948;PMS7003;20229;49.856;19.030;2023-11-18T14:29:56;20;17;12
33948;PMS7003;20229;49.856;19.030;2023-11-18T14:35:12;19;19;11
33948;PMS7003;20229;49.856;19.030;2023-11-18T14:40:30;22;17;12
33948;PMS7003;20229;49.856;19.030;2023-11-18T14:45:45;22;19;11
33948;PMS7003;20229;49.856;19.030;2023-11-18T14:51:00;27;24;16
33948;PMS7003;20229;49.856;19.030;2023-11-18T14:56:16;34;25;15
33948;PMS7003;20229;49.856;19.030;2023-11-18T15:01:31;25;21;14
33948;PMS7003;20229;49.856;19.030;2023-11-18T15:06:45;27;23;14
33948;PMS7003;20229;49.856;19.030;2023-11-18T15:12:00;26;22;14
33948;PMS7003;20229;49.856;19.030;2023-11-18T15:17:14;28;23;15
33948;PMS7003;20229;49.856;19.030;2023-11-18T15:22:31;24;19;13
33948;PMS7003;20229;49.856;19.030;2023-11-18T15:27:47;21;18;12
33948;PMS7003;20229;49.856;19.030;2023-11-18T15:38:23;19;17;11
33948;PMS7003;20229;49.856;19.030;2023-11-18T15:43:37;21;18;11
33948;PMS7003;20229;49.856;19.030;2023-11-18T15:48:54;19;17;12
33948;PMS7003;20229;49.856;19.030;2023-11-18T15:54:09;25;22;13
33948;PMS7003;20229;49.856;19.030;2023-11-18T15:59:28;26;23;14
33948;PMS7003;20229;49.856;19.030;2023-11-18T16:04:42;27;22;14
33948;PMS7003;20229;49.856;19.030;2023-11-18T16:09:55;29;25;16
33948;PMS7003;20229;49.856;19.030;2023-11-18T16:15:14;29;25;16
33948;PMS7003;20229;49.856;19.030;2023-11-18T16:20:30;29;25;16
33948;PMS7003;20229;49.856;19.030;2023-11-18T16:25:45;30;23;15
33948;PMS7003;20229;49.856;19.030;2023-11-18T16:31:00;36;28;18
33948;PMS7003;20229;49.856;19.030;2023-11-18T16:41:36;32;27;17
33948;PMS7003;20229;49.856;19.030;2023-11-18T16:46:53;28;25;15
33948;PMS7003;20229;49.856;19.030;2023-11-18T16:52:09;32;25;16
33948;PMS7003;20229;49.856;19.030;2023-11-18T16:57:23;29;25;16
33948;PMS7003;20229;49.856;19.030;2023-11-18T17:02:39;30;26;17
33948;PMS7003;20229;49.856;19.030;2023-11-18T17:07:53;35;28;17
33948;PMS7003;20229;49.856;19.030;2023-11-18T17:13:07;35;25;17
33948;PMS7003;20229;49.856;19.030;2023-11-18T17:18:22;41;32;20
33948;PMS7003;20229;49.856;19.030;2023-11-18T17:23:36;37;30;19
33948;PMS7003;20229;49.856;19.030;2023-11-18T17:28:56;35;27;17
33948;PMS7003;20229;49.856;19.030;2023-11-18T17:34:12;34;29;17
33948;PMS7003;20229;49.856;19.030;2023-11-18T17:39:28;36;29;17
33948;PMS7003;20229;49.856;19.030;2023-11-18T17:44:44;40;31;19
33948;PMS7003;20229;49.856;19.030;2023-11-18T17:49:58;42;33;21
33948;PMS7003;20229;49.856;19.030;2023-11-18T17:55:15;45;35;21
33948;PMS7003;20229;49.856;19.030;2023-11-18T18:00:29;48;37;22
33948;PMS7003;20229;49.856;19.030;2023-11-18T18:05:43;40;32;20
33948;PMS7003;20229;49.856;19.030;2023-11-18T18:10:58;31;26;16
33948;PMS7003;20229;49.856;19.030;2023-11-18T18:16:13;33;28;17
33948;PMS7003;20229;49.856;19.030;2023-11-18T18:21:27;24;20;13
33948;PMS7003;20229;49.856;19.030;2023-11-18T18:26:41;27;20;14
33948;PMS7003;20229;49.856;19.030;2023-11-18T18:31:55;25;22;13
33948;PMS7003;20229;49.856;19.030;2023-11-18T18:37:09;23;21;14
33948;PMS7003;20229;49.856;19.030;2023-11-18T18:42:24;33;26;17
33948;PMS7003;20229;49.856;19.030;2023-11-18T18:47:39;24;23;15
33948;PMS7003;20229;49.856;19.030;2023-11-18T18:52:55;27;24;15
33948;PMS7003;20229;49.856;19.030;2023-11-18T18:58:09;33;27;17
33948;PMS7003;20229;49.856;19.030;2023-11-18T19:03:25;31;26;16
33948;PMS7003;20229;49.856;19.030;2023-11-18T19:08:39;39;33;21
33948;PMS7003;20229;49.856;19.030;2023-11-18T19:13:55;36;28;16
33948;PMS7003;20229;49.856;19.030;2023-11-18T19:19:09;32;27;16
33948;PMS7003;20229;49.856;19.030;2023-11-18T19:24:23;33;25;15
33948;PMS7003;20229;49.856;19.030;2023-11-18T19:29:37;32;25;16
33948;PMS7003;20229;49.856;19.030;2023-11-18T19:34:51;32;27;17
33948;PMS7003;20229;49.856;19.030;2023-11-18T19:40:07;31;24;15
33948;PMS7003;20229;49.856;19.030;2023-11-18T19:45:25;28;25;15
33948;PMS7003;20229;49.856;19.030;2023-11-18T19:50:39;34;27;16
33948;PMS7003;20229;49.856;19.030;2023-11-18T19:55:53;63;52;32
33948;PMS7003;20229;49.856;19.030;2023-11-18T20:01:07;50;39;25
33948;PMS7003;20229;49.856;19.030;2023-11-18T20:06:25;34;26;18
33948;PMS7003;20229;49.856;19.030;2023-11-18T20:11:48;37;30;19
33948;PMS7003;20229;49.856;19.030;2023-11-18T20:17:06;36;30;18
33948;PMS7003;20229;49.856;19.030;2023-11-18T20:22:21;38;30;20
33948;PMS7003;20229;49.856;19.030;2023-11-18T20:27:34;32;26;15
33948;PMS7003;20229;49.856;19.030;2023-11-18T20:32:49;31;24;15
33948;PMS7003;20229;49.856;19.030;2023-11-18T20:38:05;29;24;15
33948;PMS7003;20229;49.856;19.030;2023-11-18T20:43:19;28;23;15
33948;PMS7003;20229;49.856;19.030;2023-11-18T20:48:38;30;25;15
33948;PMS7003;20229;49.856;19.030;2023-11-18T20:53:56;28;23;15
33948;PMS7003;20229;49.856;19.030;2023-11-18T20:59:10;27;23;13
33948;PMS7003;20229;49.856;19.030;2023-11-18T21:04:24;30;23;15
33948;PMS7003;20229;49.856;19.030;2023-11-18T21:09:39;26;23;14
33948;PMS7003;20229;49.856;19.030;2023-11-18T21:14:55;29;23;14
33948;PMS7003;20229;49.856;19.030;2023-11-18T21:20:09;25;20;12
33948;PMS7003;20229;49.856;19.030;2023-11-18T21:25:26;33;26;16
33948;PMS7003;20229;49.856;19.030;2023-11-18T21:30:40;32;26;15
33948;PMS7003;20229;49.856;19.030;2023-11-18T21:35:54;27;23;12
33948;PMS7003;20229;49.856;19.030;2023-11-18T21:41:07;27;24;15
33948;PMS7003;20229;49.856;19.030;2023-11-18T21:46:23;26;19;12
33948;PMS7003;20229;49.856;19.030;2023-11-18T21:51:38;19;19;11
33948;PMS7003;20229;49.856;19.030;2023-11-18T21:56:52;25;22;13
33948;PMS7003;20229;49.856;19.030;2023-11-18T22:02:06;27;22;13
33948;PMS7003;20229;49.856;19.030;2023-11-18T22:07:20;23;19;11
33948;PMS7003;20229;49.856;19.030;2023-11-18T22:12:34;34;27;17
33948;PMS7003;20229;49.856;19.030;2023-11-18T22:17:48;24;19;12
33948;PMS7003;20229;49.856;19.030;2023-11-18T22:23:06;20;18;11
33948;PMS7003;20229;49.856;19.030;2023-11-18T22:28:20;25;20;11
33948;PMS7003;20229;49.856;19.030;2023-11-18T22:33:34;19;17;11
33948;PMS7003;20229;49.856;19.030;2023-11-18T22:38:51;22;18;10
33948;PMS7003;20229;49.856;19.030;2023-11-18T22:44:05;25;20;11
33948;PMS7003;20229;49.856;19.030;2023-11-18T22:49:22;21;19;11
33948;PMS7003;20229;49.856;19.030;2023-11-18T22:54:37;19;16;10
33948;PMS7003;20229;49.856;19.030;2023-11-18T22:59:52;20;19;11
33948;PMS7003;20229;49.856;19.030;2023-11-18T23:05:06;19;16;10
33948;PMS7003;20229;49.856;19.030;2023-11-18T23:10:28;20;19;10
33948;PMS7003;20229;49.856;19.030;2023-11-18T23:15:42;18;15;9
33948;PMS7003;20229;49.856;19.030;2023-11-18T23:20:56;16;15;9
33948;PMS7003;20229;49.856;19.030;2023-11-18T23:26:11;16;12;8
33948;PMS7003;20229;49.856;19.030;2023-11-18T23:31:27;13;12;7
33948;PMS7003;20229;49.856;19.030;2023-11-18T23:36:42;20;16;11
33948;PMS7003;20229;49.856;19.030;2023-11-18T23:41:57;28;23;14
33948;PMS7003;20229;49.856;19.030;2023-11-18T23:47:10;23;22;13
33948;PMS7003;20229;49.856;19.030;2023-11-18T23:52:25;24;18;11
33948;PMS7003;20229;49.856;19.030;2023-11-18T23:57:40;17;17;10
